Weather reports worldwide

Advertisment
Aranda de Duero, Spain (8144): temperature & dewpoint: 13.03.2019 09:00:00 - 19.03.2019 09:00:00 (CET)Aranda de Duero, Spain (8144): wind speed & gusts: 13.03.2019 09:00:00 - 19.03.2019 09:00:00 (CET)Aranda de Duero, Spain (8144): wind direction: 13.03.2019 09:00:00 - 19.03.2019 09:00:00 (CET)Aranda de Duero, Spain (8144): visibility: 13.03.2019 09:00:00 - 19.03.2019 09:00:00 (CET)Aranda de Duero, Spain (8144): sunshine duration: 13.03.2019 09:00:00 - 19.03.2019 09:00:00 (CET)Aranda de Duero, Spain (8144): precipitation: 13.03.2019 09:00:00 - 19.03.2019 09:00:00 (CET)
Date & Time tt [°C] td [°C] ff [km/h] ff [kn] fx [km/h] fx [kn] dd vv [km] sd [min] rr [mm]
19.03.2019 09:00:00 4,9 -0,3 7 4 22 12 NNE 20 0 0,0
19.03.2019 08:00:00 2,3 -1,2 3 1 6 4 NE 20 0 0,0
19.03.2019 07:00:00 3,0 -1,7 2 1 10 6 W 20 0 -
19.03.2019 06:00:00 4,0 -1,7 4 2 21 12 NNW 20 0 0,0
19.03.2019 05:00:00 4,6 -1,7 9 5 21 11 N 20 0 0,0
19.03.2019 04:00:00 4,7 -1,7 5 3 17 9 NNE 20 0 0,0
19.03.2019 03:00:00 4,9 -2,2 6 3 14 8 NNE 20 0 0,0
19.03.2019 02:00:00 4,5 -3,0 1 1 14 8 NNW 20 0 0,0
19.03.2019 01:00:00 4,1 -3,0 4 2 12 6 N 20 0 -
19.03.2019 00:00:00 4,3 -3,0 6 3 16 9 N 20 0 0,0
18.03.2019 23:00:00 4,7 -3,0 8 4 20 11 NNW 20 0 0,0
18.03.2019 22:00:00 5,4 -2,7 6 3 18 10 NNE 20 0 0,0
18.03.2019 21:00:00 6,1 -2,7 9 5 21 12 N 20 0 0,0
18.03.2019 20:00:00 7,1 -3,9 6 3 27 15 N 20 0 0,0
18.03.2019 19:00:00 8,6 -5,1 12 6 32 18 NNE 20 0 -
18.03.2019 18:00:00 9,6 -4,5 12 7 33 18 N 20 0 0,0
18.03.2019 17:00:00 10,7 -4,2 13 7 32 17 N 20 14 0,0
18.03.2019 16:00:00 10,9 -4,8 13 7 32 17 N 20 58 0,0
18.03.2019 15:00:00 11,0 -4,2 14 8 35 19 N 20 56 0,0
18.03.2019 14:00:00 11,0 -3,9 12 6 32 17 N 20 53 0,0
18.03.2019 13:00:00 9,6 -3,6 14 7 31 17 N 20 45 -
18.03.2019 12:00:00 8,2 -2,7 13 7 34 18 NNE 20 53 0,0
18.03.2019 11:00:00 8,2 -3,0 13 7 27 14 NNE 20 60 0,0
18.03.2019 10:00:00 6,0 -3,6 9 5 21 12 NE 20 60 0,0
18.03.2019 09:00:00 3,0 -3,6 4 2 13 7 W 14 57 0,0
18.03.2019 08:00:00 -2,9 -6,7 4 2 8 5 SW 20 3 0,0
18.03.2019 07:00:00 -4,4 -8,2 3 2 9 5 WSW 20 0 -
18.03.2019 06:00:00 -3,5 -7,8 3 1 7 4 SW 20 0 0,0
18.03.2019 05:00:00 -1,9 -7,1 4 2 8 5 SSW 20 0 0,0
18.03.2019 04:00:00 0,5 -6,0 3 2 18 10 N 20 0 0,0
18.03.2019 03:00:00 1,2 -6,0 8 4 16 9 NNW 20 0 0,0
18.03.2019 02:00:00 2,4 -5,1 5 3 23 12 NW 20 0 0,0
18.03.2019 01:00:00 3,7 -4,5 10 5 24 13 NNE 20 0 -
18.03.2019 00:00:00 4,4 -3,3 8 4 29 15 NNE 20 0 0,0
17.03.2019 23:00:00 5,0 -1,7 7 4 27 15 NE 20 0 0,0
17.03.2019 22:00:00 5,4 -1,0 6 3 28 15 NNE 20 0 0,0
17.03.2019 21:00:00 6,7 -0,5 8 5 22 12 NNE 20 0 0,0
17.03.2019 20:00:00 7,7 -0,7 9 5 22 12 N 20 0 0,0
17.03.2019 19:00:00 9,3 0,4 8 4 32 17 NNE 20 0 -
17.03.2019 18:00:00 11,5 0,6 12 7 27 15 N 20 0 0,0
17.03.2019 17:00:00 12,5 0,2 11 6 31 17 N 20 0 0,0
17.03.2019 16:00:00 13,0 -0,3 13 7 29 15 NNW 20 8 0,0
17.03.2019 15:00:00 13,9 0,4 15 8 32 17 NW 20 37 0,0
17.03.2019 14:00:00 14,3 1,5 7 4 29 16 W 20 52 0,0
17.03.2019 13:00:00 11,7 0,2 10 5 29 15 WNW 20 58 -
17.03.2019 12:00:00 11,3 0,0 10 5 26 14 W 20 53 0,0
17.03.2019 11:00:00 9,5 -0,5 10 5 29 16 W 20 60 0,0
17.03.2019 10:00:00 9,0 -0,7 12 6 36 19 W 20 60 0,0
17.03.2019 09:00:00 7,2 -0,5 14 8 29 15 WSW 20 55 0,0
17.03.2019 08:00:00 0,0 -3,3 1 1 10 5 SSW 20 0 0,0
17.03.2019 07:00:00 -0,6 -3,6 2 1 9 5 NNW 20 0 -
17.03.2019 06:00:00 -0,1 -3,6 3 1 6 4 SE 20 0 0,0
17.03.2019 05:00:00 0,5 -3,3 3 2 7 4 E 20 0 0,0
17.03.2019 04:00:00 0,9 -2,5 3 1 6 4 ENE 20 0 0,0
17.03.2019 03:00:00 1,3 -2,7 2 1 8 4 ENE 20 0 0,0
17.03.2019 02:00:00 2,2 -2,5 0 0 3 2 N 20 0 0,0
17.03.2019 01:00:00 3,3 -2,2 1 1 6 4 SE 20 0 -
17.03.2019 00:00:00 4,4 -1,7 1 1 7 4 SW 20 0 0,0
16.03.2019 23:00:00 6,0 -0,7 2 1 6 3 ENE 20 0 0,0
16.03.2019 22:00:00 7,6 -1,4 3 2 5 3 ESE 20 0 0,0
16.03.2019 21:00:00 10,6 -1,7 1 1 5 3 ESE 20 0 0,0
16.03.2019 20:00:00 14,9 -2,2 1 1 10 6 SSE 20 0 0,0
16.03.2019 19:00:00 19,1 -3,0 4 2 23 13 WNW 20 2 -
16.03.2019 18:00:00 20,9 -4,5 7 4 29 16 W 20 0 0,0
16.03.2019 17:00:00 22,7 -6,0 9 5 31 17 W 20 15 0,0
16.03.2019 16:00:00 23,3 -5,7 8 4 31 17 W 20 60 0,0
16.03.2019 15:00:00 23,6 -6,4 11 6 31 17 WSW 20 55 0,0
16.03.2019 14:00:00 23,1 -6,7 9 5 27 15 W 20 53 0,0
16.03.2019 13:00:00 20,1 -2,2 7 4 17 9 WSW 20 44 -
16.03.2019 12:00:00 15,1 -2,5 2 1 9 5 NNE 20 51 0,0
16.03.2019 11:00:00 11,7 -3,0 3 2 10 6 ESE 19 60 0,0
16.03.2019 10:00:00 7,0 -3,9 4 2 13 7 ESE 20 60 0,0
16.03.2019 09:00:00 2,8 -4,2 7 4 11 6 ESE 20 52 0,0
16.03.2019 08:00:00 -1,9 -6,4 0 0 6 3 N 20 0 0,0
16.03.2019 07:00:00 -2,6 -6,4 2 1 9 5 E 20 0 -
16.03.2019 06:00:00 -2,6 -6,4 5 3 10 5 ESE 20 0 0,0
16.03.2019 05:00:00 -2,5 -6,0 2 1 4 2 E 15 0 0,0
16.03.2019 04:00:00 -1,6 -6,0 1 1 8 5 ESE 20 0 0,0
16.03.2019 03:00:00 -0,2 -5,1 4 2 12 6 E 20 0 0,0
16.03.2019 02:00:00 -0,3 -5,4 3 1 7 4 E 20 0 0,0
16.03.2019 01:00:00 1,4 -5,1 5 3 11 6 E 20 0 -
16.03.2019 00:00:00 1,7 -4,5 5 3 9 5 E 20 0 0,0
15.03.2019 23:00:00 2,1 -6,0 0 0 9 5 N 20 0 0,0
15.03.2019 22:00:00 4,3 -4,5 5 3 8 4 E 20 0 0,0
15.03.2019 21:00:00 7,1 -6,0 2 1 5 3 SE 20 0 0,0
15.03.2019 20:00:00 11,3 -4,5 2 1 9 5 S 19 0 0,0
15.03.2019 19:00:00 17,7 -7,1 4 2 14 8 W 20 2 -
15.03.2019 18:00:00 18,7 -6,7 3 2 17 9 W 20 0 0,0
15.03.2019 17:00:00 19,3 -7,8 5 3 23 12 WNW 5 18 0,0
15.03.2019 16:00:00 20,1 -8,2 6 4 20 11 WSW 17 60 0,0
15.03.2019 15:00:00 19,8 -6,7 5 3 21 11 W 20 51 0,0
15.03.2019 14:00:00 19,1 -5,7 5 3 16 8 WSW 20 52 0,0
15.03.2019 13:00:00 16,5 -3,0 8 5 16 9 WSW 20 44 -
15.03.2019 12:00:00 12,6 -2,7 5 3 16 9 WSW 1,7 50 0,0
15.03.2019 11:00:00 10,6 -3,3 4 2 13 7 W 20 60 0,0
15.03.2019 10:00:00 6,4 -2,5 3 2 9 5 E 20 60 0,0
15.03.2019 09:00:00 2,7 -3,9 4 2 8 4 ESE 16 51 0,0
15.03.2019 08:00:00 -1,7 -5,7 5 3 8 4 ESE 18 0 0,0
15.03.2019 07:00:00 -2,4 -5,7 4 2 8 4 ESE 18 0 -
15.03.2019 06:00:00 -1,8 -5,4 6 3 9 5 ESE 20 0 0,0
15.03.2019 05:00:00 -1,8 -5,4 6 3 10 5 ESE 20 0 0,0
15.03.2019 04:00:00 -1,2 -5,1 3 1 8 5 E 19 0 0,0
15.03.2019 03:00:00 -1,1 -5,1 5 3 10 6 ESE 20 0 0,0
15.03.2019 02:00:00 -1,0 -4,8 1 1 4 2 NNE 20 0 0,0
15.03.2019 01:00:00 -0,1 -4,8 1 1 6 3 ENE 20 0 -
15.03.2019 00:00:00 0,7 -4,8 4 2 7 4 E 20 0 0,0
14.03.2019 23:00:00 1,8 -4,2 0 0 4 2 N 20 0 0,0
14.03.2019 22:00:00 3,3 -4,8 0 0 4 2 N 20 0 0,0
14.03.2019 21:00:00 5,8 -4,5 1 1 11 6 ESE 20 0 0,0
14.03.2019 20:00:00 8,9 -5,1 8 5 10 6 SSW 20 0 0,0
14.03.2019 19:00:00 12,7 -4,8 4 2 18 10 W 20 0 -
14.03.2019 18:00:00 13,8 -5,4 7 4 22 12 W - 2 0,0
14.03.2019 17:00:00 13,6 -5,7 5 3 24 13 W - 7 0,0
14.03.2019 16:00:00 13,6 -5,1 7 4 21 12 W 20 60 0,0
14.03.2019 15:00:00 13,1 -4,2 8 5 22 12 WNW 20 53 0,0
14.03.2019 14:00:00 12,7 -2,7 8 4 23 12 W 12 52 0,0
14.03.2019 13:00:00 11,3 -2,5 8 5 19 10 W 20 44 -
14.03.2019 12:00:00 8,3 -1,4 5 3 19 11 NW 20 48 0,0
14.03.2019 11:00:00 8,1 -1,0 6 3 16 9 W 20 60 0,0
14.03.2019 10:00:00 5,2 -1,2 6 3 15 8 W 20 60 0,0
14.03.2019 09:00:00 2,5 -2,0 2 1 5 3 W 13 49 0,0
14.03.2019 08:00:00 -3,1 -5,7 4 2 7 4 SW 20 0 0,0
14.03.2019 07:00:00 -3,8 -6,4 3 2 8 4 WSW 20 0 -
14.03.2019 06:00:00 -3,3 -6,0 3 2 5 3 WSW 20 0 0,0
14.03.2019 05:00:00 -2,6 -5,4 1 1 5 3 SW 20 0 0,0
14.03.2019 04:00:00 -2,2 -5,1 2 1 6 4 W 20 0 0,0
14.03.2019 03:00:00 -1,6 -5,1 3 2 11 6 SW 20 0 0,0
14.03.2019 02:00:00 -0,7 -4,2 4 2 8 5 SW 20 0 0,0
14.03.2019 01:00:00 -0,4 -4,8 3 2 7 4 SW 20 0 -
14.03.2019 00:00:00 0,7 -4,5 2 1 9 5 WNW 20 0 0,0
13.03.2019 23:00:00 3,0 -3,3 3 1 12 7 SW 20 0 0,0
13.03.2019 22:00:00 4,5 -3,3 4 2 18 10 N 20 0 0,0
13.03.2019 21:00:00 5,2 -3,3 5 3 13 7 ESE 20 0 0,0
13.03.2019 20:00:00 6,4 -2,7 7 4 24 13 ENE 20 0 0,0
13.03.2019 19:00:00 9,1 -2,5 8 4 18 10 NNE 20 0 -
13.03.2019 18:00:00 10,4 -3,6 5 3 24 13 W 20 0 0,0
13.03.2019 17:00:00 11,1 -3,9 8 5 26 14 WNW 20 0 0,0
13.03.2019 16:00:00 10,4 -5,1 12 7 29 16 NW 20 35 0,0
13.03.2019 15:00:00 - - - - - - - - - -
13.03.2019 14:00:00 10,0 -4,2 6 3 24 13 NW 20 28 0,0
13.03.2019 13:00:00 9,2 -3,9 6 3 22 12 WNW 20 38 -
13.03.2019 12:00:00 8,0 -2,5 7 4 21 11 NW 20 47 0,0
13.03.2019 11:00:00 6,9 -2,7 12 7 27 15 NNW 20 59 0,0
13.03.2019 10:00:00 5,8 -2,7 13 7 24 13 N 20 60 0,0
13.03.2019 09:00:00 5,1 -3,0 6 4 14 8 NNW 20 47 0,0

tt = temperature
td = dewpoint
ff = wind speed
fx = gusts
dd = wind direction
vv = visibility
sd = sunshine duration
rr = precipitation

Next stations